Time;durP1;ratioP1;P1;durP2;ratioP2;P2;SDS_P1;SDS_P2;PMS_P1;PMS_P2;Temp;Humidity;BMP_temperature;BMP_pressure;BME280_temperature;BME280_humidity;BME280_pressure;Samples;Min_cycle;Max_cycle;Signal;HPM_P1;HPM_P2
2023/02/11 00:00:50;;;;;;;46.30;24.00;;;4.20;99.90;;;;;;5061806;28;20486;-70
2023/02/11 00:03:17;;;;;;;43.47;24.00;;;4.20;99.90;;;;;;5061599;28;20502;-71
2023/02/11 00:05:44;;;;;;;49.00;25.63;;;4.20;99.90;;;;;;5061267;28;20490;-70
2023/02/11 00:08:15;;;;;;;39.60;24.40;;;4.20;99.90;;;;;;5060534;28;20497;-70
2023/02/11 00:10:45;;;;;;;40.77;23.67;;;4.20;99.90;;;;;;5061084;28;20480;-70
2023/02/11 00:13:12;;;;;;;40.33;23.07;;;4.30;99.90;;;;;;5061812;28;20773;-71
2023/02/11 00:15:38;;;;;;;47.00;24.17;;;4.30;99.90;;;;;;5061577;28;20866;-71
2023/02/11 00:18:05;;;;;;;41.93;25.00;;;4.30;99.90;;;;;;5060769;28;20832;-70
2023/02/11 00:20:32;;;;;;;38.13;24.50;;;4.30;99.90;;;;;;5061282;28;20541;-70
2023/02/11 00:22:59;;;;;;;40.73;24.27;;;4.30;99.90;;;;;;5061736;28;20463;-71
2023/02/11 00:25:26;;;;;;;44.10;23.30;;;4.30;99.90;;;;;;5062106;28;20530;-71
2023/02/11 00:27:54;;;;;;;39.57;25.10;;;4.30;99.90;;;;;;5063310;28;20520;-71
2023/02/11 00:30:21;;;;;;;40.73;24.77;;;4.30;99.90;;;;;;5061457;28;20486;-71
2023/02/11 00:32:48;;;;;;;41.90;25.47;;;4.30;99.90;;;;;;5061367;28;20518;-70
2023/02/11 00:35:15;;;;;;;44.67;24.73;;;4.40;99.90;;;;;;5061511;28;20517;-71
2023/02/11 00:37:42;;;;;;;38.90;24.27;;;4.40;99.90;;;;;;5063952;28;20458;-71
2023/02/11 00:40:10;;;;;;;40.77;23.60;;;4.40;99.90;;;;;;5065188;28;20534;-70
2023/02/11 00:42:37;;;;;;;43.27;25.57;;;4.40;99.90;;;;;;5063922;28;20451;-70
2023/02/11 00:45:06;;;;;;;45.63;26.03;;;4.40;99.90;;;;;;5064514;28;20538;-70
2023/02/11 00:47:33;;;;;;;42.07;25.47;;;4.40;99.90;;;;;;5064444;28;20459;-71
2023/02/11 00:50:00;;;;;;;44.53;25.87;;;4.40;99.90;;;;;;5065004;28;20494;-70
2023/02/11 00:52:27;;;;;;;41.37;24.60;;;4.50;99.90;;;;;;5065046;28;20482;-69
2023/02/11 00:54:54;;;;;;;45.80;26.20;;;4.50;99.90;;;;;;5063932;28;20594;-69
2023/02/11 00:57:20;;;;;;;47.70;25.87;;;4.50;99.90;;;;;;5062828;28;20844;-70
2023/02/11 00:59:47;;;;;;;44.63;25.83;;;4.60;99.90;;;;;;5062364;28;20494;-71
2023/02/11 01:02:16;;;;;;;44.20;26.00;;;4.60;99.90;;;;;;5062247;28;20540;-70
2023/02/11 01:04:43;;;;;;;42.30;25.37;;;4.60;99.90;;;;;;5062773;28;20483;-69
2023/02/11 01:07:10;;;;;;;46.03;24.97;;;4.60;99.90;;;;;;5063692;28;20459;-70
2023/02/11 01:09:38;;;;;;;52.53;26.10;;;4.60;99.90;;;;;;5063828;28;20459;-70
2023/02/11 01:12:05;;;;;;;43.60;24.40;;;4.60;99.90;;;;;;5063708;28;20530;-70
2023/02/11 01:14:32;;;;;;;42.07;23.30;;;4.60;99.90;;;;;;5062196;28;20455;-70
2023/02/11 01:16:59;;;;;;;45.27;24.57;;;4.60;99.90;;;;;;5063220;28;20510;-71
2023/02/11 01:19:27;;;;;;;44.87;24.63;;;4.60;99.90;;;;;;5062008;28;20451;-71
2023/02/11 01:21:54;;;;;;;46.80;25.30;;;4.60;99.90;;;;;;5063159;28;20488;-71
2023/02/11 01:24:21;;;;;;;41.10;23.87;;;4.60;99.90;;;;;;5062646;28;20523;-71
2023/02/11 01:26:48;;;;;;;38.87;24.77;;;4.60;99.90;;;;;;5065751;28;20478;-70
2023/02/11 01:29:15;;;;;;;49.27;26.03;;;4.60;99.90;;;;;;5064941;28;20546;-71
2023/02/11 01:31:42;;;;;;;47.73;24.57;;;4.60;99.90;;;;;;5065015;28;20482;-70
2023/02/11 01:34:08;;;;;;;44.07;23.83;;;4.70;99.90;;;;;;5064452;28;20467;-71
2023/02/11 01:36:38;;;;;;;38.57;24.70;;;4.70;99.90;;;;;;5064083;28;20573;-70
2023/02/11 01:39:05;;;;;;;39.43;23.53;;;4.70;99.90;;;;;;5063954;28;20498;-70
2023/02/11 01:41:32;;;;;;;38.27;23.80;;;4.60;99.90;;;;;;5063925;28;20483;-70
2023/02/11 01:43:59;;;;;;;40.87;24.43;;;4.60;99.90;;;;;;5063390;28;20540;-70
2023/02/11 01:46:31;;;;;;;44.67;25.30;;;4.60;99.90;;;;;;5063475;28;20459;-70
2023/02/11 01:49:05;;;;;;;45.50;23.70;;;4.70;99.90;;;;;;5063212;28;20487;-70
2023/02/11 01:51:37;;;;;;;41.57;25.03;;;4.70;99.90;;;;;;5064553;28;20514;-70
2023/02/11 01:59:44;;;;;;;41.20;25.50;;;4.70;99.90;;;;;;5063428;28;20427;-69
2023/02/11 02:02:13;;;;;;;42.17;26.60;;;4.70;99.90;;;;;;5063041;28;20519;-69
2023/02/11 02:04:46;;;;;;;42.37;24.73;;;4.80;99.90;;;;;;5062651;28;20538;-70
2023/02/11 02:07:19;;;;;;;37.63;23.87;;;4.80;99.90;;;;;;5062093;28;20492;-69
2023/02/11 02:09:55;;;;;;;43.63;26.27;;;4.90;99.90;;;;;;5062859;28;20523;-71
2023/02/11 02:12:22;;;;;;;44.20;24.40;;;4.90;99.90;;;;;;5062771;28;20439;-70
2023/02/11 02:14:49;;;;;;;46.63;26.43;;;4.90;99.90;;;;;;5062889;28;20543;-70
2023/02/11 02:17:26;;;;;;;42.73;25.07;;;4.90;99.90;;;;;;5062403;28;21010;-70
2023/02/11 02:20:26;;;;;;;42.13;25.40;;;4.90;99.90;;;;;;5063095;28;20495;-70
2023/02/11 02:23:20;;;;;;;44.00;25.13;;;5.00;99.90;;;;;;5063631;28;20450;-69
2023/02/11 02:26:19;;;;;;;41.53;25.37;;;5.00;99.90;;;;;;5062679;28;20435;-70
2023/02/11 02:29:30;;;;;;;41.97;25.80;;;5.00;99.90;;;;;;5062714;28;20486;-70
2023/02/11 02:32:42;;;;;;;43.90;23.67;;;5.00;99.90;;;;;;5046069;28;20974;-70
2023/02/11 02:35:17;;;;;;;44.73;24.30;;;5.00;99.90;;;;;;4999413;28;20493;-69
2023/02/11 02:37:51;;;;;;;45.80;25.23;;;5.00;99.90;;;;;;5049534;28;20956;-69
2023/02/11 02:40:23;;;;;;;46.63;25.93;;;5.00;99.90;;;;;;5061174;28;20479;-70
2023/02/11 02:42:51;;;;;;;43.00;25.57;;;5.00;99.90;;;;;;5061798;28;20440;-70
2023/02/11 02:45:19;;;;;;;44.07;26.27;;;5.00;99.90;;;;;;5062239;28;20574;-70
2023/02/11 02:47:46;;;;;;;42.70;26.00;;;5.10;99.90;;;;;;5061485;28;20462;-70
2023/02/11 02:50:17;;;;;;;44.57;26.97;;;5.10;99.90;;;;;;5062144;28;20530;-69
2023/02/11 02:52:55;;;;;;;41.90;25.73;;;5.10;99.90;;;;;;5061146;28;20825;-71
2023/02/11 02:55:34;;;;;;;43.50;25.90;;;5.10;99.90;;;;;;5062217;28;20952;-69
2023/02/11 02:58:25;;;;;;;48.47;27.50;;;5.10;99.90;;;;;;5062454;28;20498;-70
2023/02/11 03:01:03;;;;;;;45.70;27.90;;;5.10;99.90;;;;;;5032268;28;20490;-70
2023/02/11 03:03:40;;;;;;;46.20;27.57;;;5.10;99.90;;;;;;5062195;28;20435;-71
2023/02/11 03:06:13;;;;;;;48.80;28.10;;;5.10;99.90;;;;;;5061829;28;20880;-70
2023/02/11 03:08:46;;;;;;;44.47;27.50;;;5.10;99.90;;;;;;5062452;28;20424;-70
2023/02/11 03:11:17;;;;;;;47.80;27.83;;;5.10;99.90;;;;;;5062276;28;20509;-70
2023/02/11 03:13:46;;;;;;;51.43;28.67;;;5.10;99.90;;;;;;5063713;28;20522;-69
2023/02/11 03:16:17;;;;;;;50.27;26.40;;;5.10;99.90;;;;;;5062497;28;20848;-71
2023/02/11 03:18:49;;;;;;;47.73;26.90;;;5.10;99.90;;;;;;5062098;28;20474;-70
2023/02/11 03:21:19;;;;;;;46.67;28.60;;;5.10;99.90;;;;;;5062184;28;20443;-70
2023/02/11 03:23:50;;;;;;;46.97;27.87;;;5.10;99.90;;;;;;5061285;28;20551;-70
2023/02/11 03:26:25;;;;;;;49.63;29.10;;;5.10;99.90;;;;;;5062082;28;20451;-70
2023/02/11 03:29:00;;;;;;;48.13;26.97;;;5.10;99.90;;;;;;5060479;28;20439;-69
2023/02/11 03:31:33;;;;;;;46.10;27.97;;;5.10;99.90;;;;;;5061081;28;20506;-71
2023/02/11 03:34:07;;;;;;;45.13;26.77;;;5.20;99.90;;;;;;5061801;28;20482;-70
2023/02/11 03:36:44;;;;;;;51.27;29.70;;;5.10;99.90;;;;;;5061651;28;20467;-70
2023/02/11 03:39:13;;;;;;;49.87;27.47;;;5.20;99.90;;;;;;5061981;28;20443;-70
2023/02/11 03:41:42;;;;;;;47.70;26.70;;;5.20;99.90;;;;;;5061950;28;20549;-71
2023/02/11 03:44:11;;;;;;;53.57;28.20;;;5.20;99.90;;;;;;5060991;28;20514;-70
2023/02/11 03:46:40;;;;;;;48.77;29.50;;;5.20;99.90;;;;;;5060659;28;20458;-70
2023/02/11 03:49:11;;;;;;;48.00;28.13;;;5.20;99.90;;;;;;5060644;28;20479;-72
2023/02/11 03:51:40;;;;;;;48.33;28.30;;;5.20;99.90;;;;;;5060788;28;20530;-71
2023/02/11 03:54:11;;;;;;;49.40;28.90;;;5.30;99.90;;;;;;5059941;28;20491;-70
2023/02/11 03:56:44;;;;;;;49.40;29.47;;;5.30;99.90;;;;;;5061839;28;20554;-70
2023/02/11 03:59:11;;;;;;;44.60;29.07;;;5.30;99.90;;;;;;5060346;28;20456;-70
2023/02/11 04:01:38;;;;;;;45.40;27.20;;;5.30;99.90;;;;;;5061038;28;20528;-70
2023/02/11 04:04:06;;;;;;;42.53;26.50;;;5.30;99.90;;;;;;5060881;28;20645;-70
2023/02/11 04:06:33;;;;;;;57.97;30.53;;;5.30;99.90;;;;;;5060818;28;20467;-69
2023/02/11 04:09:01;;;;;;;49.03;26.73;;;5.30;99.90;;;;;;5061944;28;20515;-71
2023/02/11 04:11:28;;;;;;;51.83;29.80;;;5.20;99.90;;;;;;5062751;28;20546;-69
2023/02/11 04:13:55;;;;;;;46.53;30.23;;;5.20;99.90;;;;;;5065387;28;20522;-70
2023/02/11 04:16:22;;;;;;;48.77;28.97;;;5.20;99.90;;;;;;5064571;28;20489;-70
2023/02/11 04:18:49;;;;;;;50.70;30.17;;;5.30;99.90;;;;;;5064862;28;20478;-72
2023/02/11 04:21:16;;;;;;;49.00;30.10;;;5.30;99.90;;;;;;5066203;28;20534;-71
2023/02/11 04:23:42;;;;;;;49.43;30.00;;;5.30;99.90;;;;;;5066726;28;20478;-71
2023/02/11 04:26:11;;;;;;;53.57;28.93;;;5.30;99.90;;;;;;5065631;28;20479;-71
2023/02/11 04:28:37;;;;;;;52.03;30.50;;;5.40;99.90;;;;;;5064581;28;20541;-71
2023/02/11 04:31:05;;;;;;;47.83;29.00;;;5.40;99.90;;;;;;5064899;28;20514;-70
2023/02/11 04:33:31;;;;;;;43.50;28.57;;;5.40;99.90;;;;;;5064340;28;20493;-70
2023/02/11 04:35:58;;;;;;;48.10;28.73;;;5.40;99.90;;;;;;5064396;28;20451;-70
2023/02/11 04:38:26;;;;;;;48.23;30.43;;;5.40;99.90;;;;;;5064088;28;20466;-69
2023/02/11 04:40:53;;;;;;;49.63;28.33;;;5.40;99.90;;;;;;5063758;28;20519;-70
2023/02/11 04:43:21;;;;;;;46.57;28.40;;;5.40;99.90;;;;;;5063954;28;20585;-71
2023/02/11 04:45:48;;;;;;;55.93;31.17;;;5.40;99.90;;;;;;5064637;28;20534;-71
2023/02/11 04:48:15;;;;;;;52.67;29.50;;;5.40;99.90;;;;;;5064321;28;20490;-69
2023/02/11 04:50:42;;;;;;;52.20;29.90;;;5.30;99.90;;;;;;5064214;28;20483;-70
2023/02/11 04:53:08;;;;;;;50.07;29.87;;;5.30;99.90;;;;;;5064443;28;20542;-69
2023/02/11 04:55:35;;;;;;;56.67;32.37;;;5.30;99.90;;;;;;5064553;28;20543;-69
2023/02/11 04:58:02;;;;;;;60.17;32.27;;;5.30;99.90;;;;;;5064283;28;20562;-71
2023/02/11 05:00:30;;;;;;;55.33;31.57;;;5.30;99.90;;;;;;5063848;28;20455;-71
2023/02/11 05:02:57;;;;;;;50.07;32.10;;;5.30;99.90;;;;;;5063948;28;20527;-70
2023/02/11 05:05:24;;;;;;;61.43;31.27;;;5.30;99.90;;;;;;5063650;28;20485;-70
2023/02/11 05:07:52;;;;;;;52.03;31.97;;;5.30;99.90;;;;;;5061252;28;20534;-70
2023/02/11 05:10:19;;;;;;;50.30;33.17;;;5.30;99.90;;;;;;5061949;28;20486;-72
2023/02/11 05:12:48;;;;;;;54.13;31.30;;;5.30;99.90;;;;;;5061952;28;20538;-72
2023/02/11 05:15:15;;;;;;;55.90;32.30;;;5.30;99.90;;;;;;5063344;28;20521;-71
2023/02/11 05:17:43;;;;;;;49.00;31.80;;;5.30;99.90;;;;;;5064392;28;20507;-71
2023/02/11 05:20:11;;;;;;;52.57;30.97;;;5.30;99.90;;;;;;5064362;28;20538;-70
2023/02/11 05:22:38;;;;;;;55.63;32.30;;;5.30;99.90;;;;;;5064173;28;20550;-71
2023/02/11 05:25:05;;;;;;;58.27;32.30;;;5.20;99.90;;;;;;5065012;28;20495;-69
2023/02/11 05:27:32;;;;;;;52.83;31.80;;;5.20;99.90;;;;;;5063062;28;20455;-71
2023/02/11 05:29:59;;;;;;;61.60;32.97;;;5.20;99.90;;;;;;5063725;28;20459;-70
2023/02/11 05:32:26;;;;;;;60.57;34.63;;;5.20;99.90;;;;;;5063012;28;20511;-70
2023/02/11 05:34:54;;;;;;;54.23;31.57;;;5.20;99.90;;;;;;5063072;28;20852;-69
2023/02/11 05:37:21;;;;;;;55.57;33.67;;;5.30;99.90;;;;;;5063278;28;20507;-71
2023/02/11 05:39:48;;;;;;;59.53;31.97;;;5.30;99.90;;;;;;5063406;28;20455;-71
2023/02/11 05:42:15;;;;;;;52.87;33.63;;;5.30;99.90;;;;;;5063304;28;20507;-70
2023/02/11 05:44:42;;;;;;;57.27;34.07;;;5.30;99.90;;;;;;5063834;28;20868;-70
2023/02/11 05:47:09;;;;;;;56.40;33.53;;;5.30;99.90;;;;;;5063069;28;20931;-73
2023/02/11 05:49:36;;;;;;;52.00;33.17;;;5.30;99.90;;;;;;5062973;28;20538;-70
2023/02/11 05:52:04;;;;;;;64.90;35.17;;;5.30;99.90;;;;;;5076817;28;20465;-69
2023/02/11 05:54:31;;;;;;;63.20;33.70;;;5.30;99.90;;;;;;5082731;28;20552;-70
2023/02/11 05:56:58;;;;;;;61.93;35.63;;;5.30;99.90;;;;;;5081575;28;20524;-70
2023/02/11 05:59:25;;;;;;;64.13;35.73;;;5.30;99.90;;;;;;5082200;28;20542;-71
2023/02/11 06:01:52;;;;;;;54.17;33.30;;;5.30;99.90;;;;;;5081615;28;20457;-71
2023/02/11 06:04:19;;;;;;;59.23;35.43;;;5.30;99.90;;;;;;5082199;28;20553;-70
2023/02/11 06:06:45;;;;;;;71.17;38.80;;;5.30;99.90;;;;;;5082301;28;20454;-71
2023/02/11 06:09:14;;;;;;;69.20;36.17;;;5.30;99.90;;;;;;5082087;28;20541;-70
2023/02/11 06:11:40;;;;;;;69.67;38.43;;;5.30;99.90;;;;;;5082443;28;20907;-70
2023/02/11 06:14:08;;;;;;;64.93;38.50;;;5.40;99.90;;;;;;5082646;28;20458;-71
2023/02/11 06:16:35;;;;;;;63.47;36.33;;;5.40;99.90;;;;;;5082644;28;20478;-70
2023/02/11 06:19:02;;;;;;;63.93;37.33;;;5.40;99.90;;;;;;5082729;28;20525;-71
2023/02/11 06:21:29;;;;;;;66.97;36.03;;;5.40;99.90;;;;;;5083039;28;20450;-70
2023/02/11 06:23:56;;;;;;;74.00;37.13;;;5.40;99.90;;;;;;5083143;28;20557;-71
2023/02/11 06:26:24;;;;;;;65.67;37.27;;;5.40;99.90;;;;;;5084036;28;20541;-70
2023/02/11 06:28:51;;;;;;;71.10;38.70;;;5.40;99.90;;;;;;5083821;28;20450;-71
2023/02/11 06:31:18;;;;;;;79.27;39.83;;;5.40;99.90;;;;;;5067760;28;20477;-70
2023/02/11 06:33:45;;;;;;;67.53;38.47;;;5.40;99.90;;;;;;5062821;28;20794;-71
2023/02/11 06:36:15;;;;;;;69.97;37.87;;;5.40;99.90;;;;;;5063682;28;20459;-71
2023/02/11 06:38:42;;;;;;;64.50;37.47;;;5.40;99.90;;;;;;5062716;28;20474;-70
2023/02/11 06:41:10;;;;;;;79.50;39.90;;;5.40;99.90;;;;;;5062277;28;20527;-70
2023/02/11 06:43:39;;;;;;;73.40;38.70;;;5.40;99.90;;;;;;5061502;28;20851;-70
2023/02/11 06:46:07;;;;;;;71.37;39.43;;;5.40;99.90;;;;;;5061877;28;20435;-71
2023/02/11 06:48:35;;;;;;;71.13;37.90;;;5.40;99.90;;;;;;5062021;28;20665;-71
2023/02/11 06:51:03;;;;;;;73.83;40.30;;;5.50;99.90;;;;;;5061464;28;20531;-70
2023/02/11 06:53:30;;;;;;;73.73;40.10;;;5.50;99.90;;;;;;5061215;28;20455;-71
2023/02/11 06:56:01;;;;;;;73.07;40.60;;;5.50;99.90;;;;;;5080050;28;20454;-70
2023/02/11 06:58:28;;;;;;;72.90;38.90;;;5.60;99.90;;;;;;5081704;28;20587;-69
2023/02/11 07:00:56;;;;;;;71.87;37.03;;;5.60;99.90;;;;;;5081692;28;20820;-70
2023/02/11 07:03:23;;;;;;;75.63;39.53;;;5.60;99.90;;;;;;5080843;28;20778;-70
2023/02/11 07:05:50;;;;;;;73.90;40.90;;;5.60;99.90;;;;;;5080579;28;20819;-70
2023/02/11 07:08:17;;;;;;;70.57;37.83;;;5.70;99.90;;;;;;5080200;28;21010;-69
2023/02/11 07:10:44;;;;;;;68.50;39.57;;;5.70;99.90;;;;;;5079428;28;20522;-69
2023/02/11 07:13:11;;;;;;;69.00;38.83;;;5.70;99.90;;;;;;5080608;28;20494;-72
2023/02/11 07:15:38;;;;;;;71.27;39.20;;;5.70;99.90;;;;;;5081546;28;20543;-71
2023/02/11 07:18:06;;;;;;;78.90;41.40;;;5.70;99.90;;;;;;5082907;28;20542;-71
2023/02/11 07:20:33;;;;;;;78.57;39.83;;;5.70;99.90;;;;;;5081040;28;20446;-71
2023/02/11 07:22:59;;;;;;;75.60;40.20;;;5.80;99.90;;;;;;5079757;28;20553;-70
2023/02/11 07:25:26;;;;;;;69.80;38.07;;;5.80;99.90;;;;;;5080093;28;20493;-71
2023/02/11 07:27:53;;;;;;;81.23;40.17;;;5.90;99.90;;;;;;5079176;28;20822;-70
2023/02/11 07:30:20;;;;;;;72.70;38.87;;;5.90;99.90;;;;;;5079466;28;20462;-71
2023/02/11 07:32:47;;;;;;;67.40;39.33;;;5.90;99.90;;;;;;5079370;28;20485;-69
2023/02/11 07:35:15;;;;;;;69.80;40.80;;;5.90;99.90;;;;;;5078894;28;20458;-71
2023/02/11 07:37:42;;;;;;;76.77;40.07;;;6.00;99.90;;;;;;5079007;28;20508;-70
2023/02/11 07:40:10;;;;;;;76.20;40.17;;;6.00;99.90;;;;;;5079576;28;20460;-70
2023/02/11 07:42:39;;;;;;;68.50;38.70;;;6.00;99.90;;;;;;5077642;28;20468;-70
2023/02/11 07:45:06;;;;;;;71.20;41.20;;;6.10;99.90;;;;;;5079494;28;20967;-70
2023/02/11 07:47:34;;;;;;;68.40;37.43;;;6.10;99.90;;;;;;5083911;28;20478;-70
2023/02/11 07:50:01;;;;;;;69.63;37.97;;;6.10;99.90;;;;;;5083347;28;20533;-70
2023/02/11 07:52:31;;;;;;;74.10;37.43;;;6.20;99.90;;;;;;5082656;28;20464;-71
2023/02/11 07:54:58;;;;;;;68.20;37.17;;;6.20;99.90;;;;;;5083120;28;20541;-71
2023/02/11 07:57:25;;;;;;;69.73;38.80;;;6.20;99.90;;;;;;5083780;28;20481;-70
2023/02/11 07:59:52;;;;;;;64.50;36.63;;;6.30;99.90;;;;;;5082508;28;20513;-71
2023/02/11 08:02:19;;;;;;;66.83;37.97;;;6.30;99.90;;;;;;5083752;28;20482;-71
2023/02/11 08:04:47;;;;;;;65.03;35.60;;;6.30;99.90;;;;;;5083451;28;20492;-70
2023/02/11 08:07:15;;;;;;;68.47;36.60;;;6.30;99.90;;;;;;5083752;28;20514;-70
2023/02/11 08:09:44;;;;;;;69.80;37.00;;;6.30;99.90;;;;;;5084197;28;20521;-70
2023/02/11 08:12:11;;;;;;;69.33;35.77;;;6.30;99.90;;;;;;5084263;28;20836;-71
2023/02/11 08:14:38;;;;;;;64.23;36.50;;;6.30;99.90;;;;;;5084825;28;20526;-70
2023/02/11 08:17:05;;;;;;;71.90;36.90;;;6.30;99.90;;;;;;5083944;28;20484;-70
2023/02/11 08:19:32;;;;;;;71.00;38.00;;;6.40;99.90;;;;;;5083445;28;20450;-69
2023/02/11 08:22:00;;;;;;;72.90;36.90;;;6.30;99.90;;;;;;5084325;28;20449;-69
2023/02/11 08:24:26;;;;;;;65.07;37.17;;;6.30;99.90;;;;;;5083574;28;20461;-70
2023/02/11 08:26:55;;;;;;;64.87;36.40;;;6.40;99.90;;;;;;5082569;28;20957;-70
2023/02/11 08:29:22;;;;;;;69.43;38.37;;;6.40;99.90;;;;;;5083460;28;20482;-71
2023/02/11 08:31:49;;;;;;;69.10;37.00;;;6.30;99.90;;;;;;5085998;28;20537;-71
2023/02/11 08:34:18;;;;;;;67.30;36.67;;;6.30;99.90;;;;;;5084836;28;20995;-71
2023/02/11 08:36:46;;;;;;;70.60;38.27;;;6.30;99.90;;;;;;5085473;28;20556;-70
2023/02/11 08:39:15;;;;;;;72.80;36.97;;;6.30;99.90;;;;;;5084099;28;20892;-70
2023/02/11 08:41:42;;;;;;;77.53;39.93;;;6.30;99.90;;;;;;5083751;28;20490;-70
2023/02/11 08:44:10;;;;;;;69.33;37.17;;;6.30;99.90;;;;;;5083851;28;20541;-70
2023/02/11 08:46:37;;;;;;;70.40;37.97;;;6.20;99.90;;;;;;5082884;28;20548;-69
2023/02/11 08:49:04;;;;;;;66.00;39.10;;;6.30;99.90;;;;;;5085114;28;20923;-71
2023/02/11 08:51:31;;;;;;;78.37;39.00;;;6.20;99.90;;;;;;5085024;28;20545;-69
2023/02/11 08:53:59;;;;;;;78.20;39.43;;;6.20;99.90;;;;;;5084831;28;20465;-71
2023/02/11 08:56:26;;;;;;;75.00;38.30;;;6.30;99.90;;;;;;5083892;28;20541;-70
2023/02/11 08:58:54;;;;;;;76.60;36.87;;;6.30;99.90;;;;;;5083507;28;20505;-70
2023/02/11 09:01:24;;;;;;;70.23;39.83;;;6.30;99.90;;;;;;5083766;28;20446;-70
2023/02/11 09:03:51;;;;;;;70.40;36.37;;;6.30;99.90;;;;;;5083891;28;20523;-70
2023/02/11 09:06:18;;;;;;;74.20;37.60;;;6.40;99.90;;;;;;5084082;28;20850;-70
2023/02/11 09:08:47;;;;;;;69.47;37.60;;;6.40;99.90;;;;;;5083028;28;20456;-70
2023/02/11 09:11:15;;;;;;;68.93;38.50;;;6.40;99.90;;;;;;5080017;28;20454;-71
2023/02/11 09:13:43;;;;;;;63.20;35.37;;;6.40;99.90;;;;;;5085564;28;20509;-71
2023/02/11 09:16:17;;;;;;;67.33;35.53;;;6.40;99.90;;;;;;5084253;28;20554;-70
2023/02/11 09:18:45;;;;;;;75.47;36.43;;;6.40;99.90;;;;;;5083165;28;20489;-71
2023/02/11 09:21:12;;;;;;;67.53;36.73;;;6.40;99.90;;;;;;5082161;28;20859;-70
2023/02/11 09:23:42;;;;;;;62.53;35.03;;;6.50;99.90;;;;;;5083349;28;20549;-71
2023/02/11 09:26:12;;;;;;;66.30;36.00;;;6.50;99.90;;;;;;5084305;28;20544;-71
2023/02/11 09:28:39;;;;;;;67.50;36.23;;;6.50;99.90;;;;;;5084423;28;20507;-70
2023/02/11 09:31:07;;;;;;;63.20;34.20;;;6.50;99.90;;;;;;5084517;28;20565;-69
2023/02/11 09:33:34;;;;;;;68.10;38.23;;;6.50;99.90;;;;;;5083625;28;20490;-70
2023/02/11 09:36:03;;;;;;;62.90;34.73;;;6.50;99.90;;;;;;5082955;28;20537;-70
2023/02/11 09:38:30;;;;;;;54.23;32.53;;;6.50;99.90;;;;;;5083162;28;20537;-70
2023/02/11 09:40:57;;;;;;;59.23;34.03;;;6.50;99.90;;;;;;5083004;28;20514;-70
2023/02/11 09:43:33;;;;;;;65.47;38.13;;;6.50;99.90;;;;;;5082591;28;20528;-70
2023/02/11 09:46:00;;;;;;;67.27;36.07;;;6.50;99.90;;;;;;5082571;28;20442;-70
2023/02/11 09:48:27;;;;;;;68.27;36.40;;;6.50;99.90;;;;;;5083833;28;20450;-70
2023/02/11 09:50:57;;;;;;;62.70;33.60;;;6.50;99.90;;;;;;5083689;28;20518;-70
2023/02/11 09:53:27;;;;;;;71.60;36.40;;;6.50;99.90;;;;;;5084116;28;20740;-70
2023/02/11 09:55:55;;;;;;;71.00;37.40;;;6.50;99.90;;;;;;5083211;28;20486;-70
2023/02/11 09:58:27;;;;;;;63.33;34.40;;;6.50;99.90;;;;;;5083343;28;20482;-71
2023/02/11 10:01:04;;;;;;;66.30;35.83;;;6.50;99.90;;;;;;5084275;28;20462;-71
2023/02/11 10:03:56;;;;;;;60.17;36.67;;;6.50;99.90;;;;;;5083456;28;20466;-70
2023/02/11 10:06:38;;;;;;;60.23;34.27;;;6.60;99.90;;;;;;5083432;28;20521;-69
2023/02/11 10:09:18;;;;;;;55.47;33.63;;;6.60;99.90;;;;;;5081834;28;20444;-69
2023/02/11 10:11:53;;;;;;;69.50;35.53;;;6.60;99.90;;;;;;5069001;28;20481;-71
2023/02/11 10:14:36;;;;;;;60.07;33.27;;;6.60;99.90;;;;;;5077615;28;20448;-69
2023/02/11 10:17:12;;;;;;;69.43;35.50;;;6.60;99.90;;;;;;5076045;28;20470;-70
2023/02/11 10:19:57;;;;;;;55.37;32.30;;;6.60;99.90;;;;;;5075657;28;20533;-70
2023/02/11 10:22:30;;;;;;;59.97;34.97;;;6.60;99.90;;;;;;5073965;28;20533;-70
2023/02/11 10:25:00;;;;;;;65.43;35.60;;;6.60;99.90;;;;;;5075595;28;20534;-71
2023/02/11 10:27:31;;;;;;;68.87;37.27;;;6.50;99.90;;;;;;5076550;28;20871;-69
2023/02/11 10:30:02;;;;;;;68.70;35.50;;;6.50;99.90;;;;;;5076029;28;20509;-71
2023/02/11 10:32:36;;;;;;;69.17;36.50;;;6.50;99.90;;;;;;5060440;28;20451;-71
2023/02/11 10:35:13;;;;;;;67.40;36.97;;;6.50;99.90;;;;;;5056665;28;20454;-70
2023/02/11 10:37:40;;;;;;;66.23;35.30;;;6.50;99.90;;;;;;5055040;28;20906;-70
2023/02/11 10:40:14;;;;;;;78.90;37.97;;;6.50;99.90;;;;;;5055542;28;20546;-70
2023/02/11 10:42:44;;;;;;;67.90;35.07;;;6.50;99.90;;;;;;5056142;28;20443;-71
2023/02/11 10:45:19;;;;;;;66.13;34.43;;;6.60;99.90;;;;;;5055482;28;20497;-70
2023/02/11 10:47:46;;;;;;;70.67;36.77;;;6.60;99.90;;;;;;5056208;28;20442;-70
2023/02/11 10:50:20;;;;;;;65.50;36.70;;;6.60;99.90;;;;;;5055655;28;20543;-70
2023/02/11 10:52:47;;;;;;;59.03;34.17;;;6.60;99.90;;;;;;5055294;28;20553;-70
2023/02/11 10:55:19;;;;;;;69.00;35.70;;;6.60;99.90;;;;;;5055636;28;20454;-70
2023/02/11 10:57:54;;;;;;;73.10;39.20;;;6.60;99.90;;;;;;5055770;28;20444;-71
2023/02/11 11:00:32;;;;;;;71.63;35.80;;;6.60;99.90;;;;;;5055430;28;20782;-69
2023/02/11 11:03:01;;;;;;;64.47;36.00;;;6.60;99.90;;;;;;5056124;28;20439;-69
2023/02/11 11:05:34;;;;;;;72.67;37.53;;;6.60;99.90;;;;;;5056120;28;20497;-71
2023/02/11 11:08:04;;;;;;;70.83;36.40;;;6.60;99.90;;;;;;5056705;28;20511;-70
2023/02/11 11:10:43;;;;;;;74.93;38.23;;;6.60;99.90;;;;;;5058618;28;20479;-70
2023/02/11 11:13:32;;;;;;;65.53;35.90;;;6.60;99.90;;;;;;5057016;28;20447;-70
2023/02/11 11:16:20;;;;;;;71.23;37.07;;;6.60;99.90;;;;;;5056047;28;20444;-70
2023/02/11 11:18:48;;;;;;;76.93;36.37;;;6.60;99.90;;;;;;5055751;28;20474;-70
2023/02/11 11:21:19;;;;;;;61.40;34.43;;;6.60;99.90;;;;;;5055551;28;20541;-70
2023/02/11 11:23:52;;;;;;;61.67;33.57;;;6.60;99.90;;;;;;5054982;28;20439;-70
2023/02/11 11:26:21;;;;;;;67.20;34.77;;;6.60;99.90;;;;;;5055288;28;20763;-71
2023/02/11 11:28:55;;;;;;;67.03;36.20;;;6.60;99.90;;;;;;5054797;28;20452;-70
2023/02/11 11:31:25;;;;;;;58.90;30.13;;;6.70;99.90;;;;;;5054607;28;20895;-71
2023/02/11 11:33:55;;;;;;;68.40;34.93;;;6.70;99.90;;;;;;5054419;28;20459;-71
2023/02/11 11:36:30;;;;;;;61.47;34.57;;;6.70;99.90;;;;;;5054558;28;20481;-70
2023/02/11 11:39:01;;;;;;;61.10;32.00;;;6.70;99.90;;;;;;5054828;28;20546;-69
2023/02/11 11:41:31;;;;;;;66.43;32.50;;;6.70;99.90;;;;;;5054613;28;20455;-70
2023/02/11 11:44:01;;;;;;;64.30;33.70;;;6.70;99.90;;;;;;5054151;28;20513;-71
2023/02/11 11:46:31;;;;;;;58.03;32.00;;;6.70;99.90;;;;;;5054677;28;20455;-71
2023/02/11 11:49:13;;;;;;;65.90;33.73;;;6.70;99.90;;;;;;5054165;28;20451;-70
2023/02/11 11:51:45;;;;;;;58.40;30.33;;;6.70;99.90;;;;;;5054705;28;20451;-70
2023/02/11 11:54:15;;;;;;;62.77;31.00;;;6.70;99.90;;;;;;5054703;28;20444;-70
2023/02/11 11:56:53;;;;;;;63.23;31.40;;;6.80;99.90;;;;;;5055130;28;20451;-70
2023/02/11 11:59:21;;;;;;;58.20;30.80;;;6.80;99.90;;;;;;5054927;28;20510;-70
2023/02/11 12:02:01;;;;;;;57.70;31.23;;;6.80;99.90;;;;;;5055135;28;20469;-69
2023/02/11 12:04:42;;;;;;;59.70;30.67;;;6.80;99.90;;;;;;5054540;28;20513;-69
2023/02/11 12:07:26;;;;;;;65.17;29.20;;;6.80;99.90;;;;;;5054519;28;20888;-71
2023/02/11 12:10:19;;;;;;;52.97;26.90;;;6.90;99.90;;;;;;5055262;28;20462;-70
2023/02/11 12:12:56;;;;;;;48.07;25.70;;;6.90;99.90;;;;;;5056971;28;20538;-71
2023/02/11 12:15:32;;;;;;;46.27;28.07;;;6.90;99.90;;;;;;5055362;28;20450;-71
2023/02/11 12:18:15;;;;;;;51.13;27.83;;;7.00;99.90;;;;;;5054485;28;20443;-71
2023/02/11 12:20:57;;;;;;;42.57;24.53;;;7.00;99.90;;;;;;5054257;28;20435;-71
2023/02/11 12:23:45;;;;;;;44.97;25.37;;;7.00;99.90;;;;;;5053710;28;20504;-70
2023/02/11 12:26:16;;;;;;;43.87;26.50;;;7.00;99.90;;;;;;5054473;28;20432;-70
2023/02/11 12:28:57;;;;;;;46.50;27.33;;;7.10;99.90;;;;;;5053921;28;20435;-70
2023/02/11 12:31:34;;;;;;;42.83;24.70;;;7.10;99.90;;;;;;5054005;28;20431;-70
2023/02/11 12:34:24;;;;;;;43.57;24.57;;;7.10;99.90;;;;;;5057611;28;20439;-71
2023/02/11 12:37:02;;;;;;;42.27;23.97;;;7.20;99.90;;;;;;5049070;28;20535;-71
2023/02/11 12:39:38;;;;;;;40.00;22.80;;;7.20;99.90;;;;;;5057183;28;20994;-71
2023/02/11 12:45:32;;;;;;;36.23;21.17;;;7.20;99.90;;;;;;5058155;28;20423;-70
2023/02/11 12:48:21;;;;;;;44.07;22.80;;;7.20;99.90;;;;;;5057349;28;20445;-71
2023/02/11 12:50:58;;;;;;;42.83;24.37;;;7.20;99.90;;;;;;5058222;28;20451;-70
2023/02/11 12:53:59;;;;;;;36.40;22.10;;;7.30;99.90;;;;;;5057385;28;20462;-70
2023/02/11 12:56:32;;;;;;;36.87;22.70;;;7.30;99.90;;;;;;5026903;28;20458;-71
2023/02/11 12:59:01;;;;;;;42.90;23.93;;;7.30;99.90;;;;;;5056750;28;20555;-72
2023/02/11 13:01:35;;;;;;;38.13;22.73;;;7.30;99.90;;;;;;5057140;28;20455;-70